Time;durP1;ratioP1;P1;durP2;ratioP2;P2;SDS_P1;SDS_P2;PMS_P1;PMS_P2;Temp;Humidity;BMP_temperature;BMP_pressure;BME280_temperature;BME280_humidity;BME280_pressure;Samples;Min_cycle;Max_cycle;Signal;HPM_P1;HPM_P2
2021/05/07 00:00:33;;;;;;;5.32;3.60;;;6.10;83.90;;;;;;2069046;28;20100;-83
2021/05/07 00:01:34;;;;;;;5.75;3.65;;;6.10;83.90;;;;;;2069253;28;20021;-82
2021/05/07 00:02:34;;;;;;;5.68;3.70;;;6.10;83.90;;;;;;2069558;28;20125;-82
2021/05/07 00:03:36;;;;;;;5.57;3.67;;;6.00;83.80;;;;;;2056581;28;20485;-83
2021/05/07 00:04:36;;;;;;;6.07;4.05;;;6.10;83.90;;;;;;2065595;28;20061;-83
2021/05/07 00:05:37;;;;;;;6.00;4.20;;;6.00;83.80;;;;;;2085873;28;20029;-82
2021/05/07 00:06:37;;;;;;;5.75;3.80;;;6.00;83.90;;;;;;2080558;28;20510;-83
2021/05/07 00:07:38;;;;;;;6.28;4.15;;;6.00;83.90;;;;;;2056026;28;20098;-82
2021/05/07 00:08:41;;;;;;;6.03;4.03;;;6.00;84.00;;;;;;2067164;28;20045;-82
2021/05/07 00:09:41;;;;;;;6.07;3.90;;;6.00;84.70;;;;;;2082163;28;20525;-83
2021/05/07 00:10:43;;;;;;;5.80;3.95;;;5.90;84.00;;;;;;2085009;28;20037;-83
2021/05/07 00:11:43;;;;;;;5.93;3.90;;;5.90;84.10;;;;;;2075770;28;20029;-83
2021/05/07 00:12:45;;;;;;;6.47;3.97;;;5.90;84.10;;;;;;2078570;28;21725;-82
2021/05/07 00:13:47;;;;;;;5.03;3.65;;;5.90;84.80;;;;;;2080454;28;20573;-82
2021/05/07 00:14:48;;;;;;;5.97;3.75;;;5.90;84.20;;;;;;2077333;28;20029;-82
2021/05/07 00:15:49;;;;;;;5.35;3.58;;;5.90;84.20;;;;;;2077124;28;20041;-82
2021/05/07 00:16:52;;;;;;;6.35;3.80;;;5.90;84.20;;;;;;2092401;28;20119;-82
2021/05/07 00:17:53;;;;;;;6.15;4.03;;;5.80;84.20;;;;;;2091875;28;20031;-82
2021/05/07 00:18:54;;;;;;;5.85;3.67;;;5.90;84.20;;;;;;2076790;28;20767;-82
2021/05/07 00:19:55;;;;;;;5.95;3.80;;;5.80;84.20;;;;;;2077605;28;20504;-83
2021/05/07 00:20:56;;;;;;;5.80;4.00;;;5.90;84.30;;;;;;2076820;28;20026;-82
2021/05/07 00:21:56;;;;;;;6.30;4.03;;;5.90;84.30;;;;;;2077187;28;20040;-83
2021/05/07 00:22:57;;;;;;;5.68;3.90;;;5.90;84.30;;;;;;2084942;28;20112;-82
2021/05/07 00:23:58;;;;;;;6.32;3.90;;;5.80;84.20;;;;;;2084914;28;20060;-82
2021/05/07 00:24:58;;;;;;;5.13;3.58;;;5.80;84.30;;;;;;2070493;28;20026;-82
2021/05/07 00:25:59;;;;;;;6.03;4.07;;;5.80;84.20;;;;;;2072215;28;20496;-82
2021/05/07 00:27:00;;;;;;;6.53;4.28;;;5.80;84.20;;;;;;2071639;28;20030;-82
2021/05/07 00:28:04;;;;;;;5.60;3.55;;;5.80;84.20;;;;;;2077171;28;20030;-81
2021/05/07 00:29:05;;;;;;;5.75;3.83;;;5.80;84.30;;;;;;2079267;28;20545;-82
2021/05/07 00:30:06;;;;;;;5.50;3.80;;;5.80;84.30;;;;;;2061753;28;20022;-82
2021/05/07 00:31:07;;;;;;;5.50;3.75;;;5.80;84.30;;;;;;2062808;28;20037;-82
2021/05/07 00:32:07;;;;;;;5.90;3.83;;;5.70;84.20;;;;;;2079432;28;20140;-82
2021/05/07 00:33:09;;;;;;;5.18;3.78;;;5.70;84.30;;;;;;2075415;28;20065;-82
2021/05/07 00:34:09;;;;;;;6.10;3.90;;;5.70;84.30;;;;;;2079013;28;20466;-82
2021/05/07 00:35:10;;;;;;;8.48;4.22;;;5.70;84.30;;;;;;2084673;28;20152;-83
2021/05/07 00:36:11;;;;;;;5.47;3.75;;;5.70;84.30;;;;;;2079301;28;20096;-82
2021/05/07 00:37:11;;;;;;;5.82;3.88;;;5.70;84.40;;;;;;2072256;28;20022;-83
2021/05/07 00:38:14;;;;;;;5.70;3.92;;;5.70;84.40;;;;;;2070562;28;20055;-82
2021/05/07 00:39:14;;;;;;;6.20;3.65;;;5.60;84.30;;;;;;2062595;28;20034;-83
2021/05/07 00:40:15;;;;;;;5.90;3.88;;;5.60;84.30;;;;;;2074625;28;20085;-82
2021/05/07 00:41:17;;;;;;;5.25;3.80;;;5.60;84.40;;;;;;2074960;28;20447;-83
2021/05/07 00:42:18;;;;;;;6.90;4.25;;;5.60;84.50;;;;;;2080021;28;20033;-82
2021/05/07 00:43:18;;;;;;;5.50;3.78;;;5.60;84.50;;;;;;2079828;28;20495;-82
2021/05/07 00:44:19;;;;;;;5.47;3.90;;;5.60;84.50;;;;;;2077011;28;20030;-82
2021/05/07 00:45:20;;;;;;;6.20;3.85;;;5.60;84.50;;;;;;2077284;28;20036;-83
2021/05/07 00:46:21;;;;;;;5.28;3.75;;;5.60;84.50;;;;;;2073611;28;20057;-83
2021/05/07 00:47:21;;;;;;;6.65;4.20;;;5.50;84.50;;;;;;2071593;28;20543;-83
2021/05/07 00:48:23;;;;;;;5.43;3.97;;;5.50;84.60;;;;;;2078291;28;20075;-82
2021/05/07 00:49:23;;;;;;;5.50;3.85;;;5.50;84.60;;;;;;2095357;28;20028;-83
2021/05/07 00:50:32;;;;;;;6.13;4.00;;;5.50;84.70;;;;;;2088732;28;20507;-83
2021/05/07 00:51:33;;;;;;;6.78;3.85;;;5.50;84.80;;;;;;2092069;28;20412;-83
2021/05/07 00:52:37;;;;;;;5.45;3.78;;;5.40;84.70;;;;;;2080262;28;20057;-82
2021/05/07 00:53:39;;;;;;;6.00;4.18;;;5.40;84.80;;;;;;2073636;28;20037;-83
2021/05/07 00:54:40;;;;;;;5.75;3.78;;;5.40;84.90;;;;;;2088606;28;20036;-82
2021/05/07 00:55:41;;;;;;;6.90;4.40;;;5.40;84.90;;;;;;2072163;28;20085;-83
2021/05/07 00:56:42;;;;;;;5.38;3.72;;;5.40;84.90;;;;;;2066674;28;20361;-83
2021/05/07 00:57:43;;;;;;;6.53;4.10;;;5.40;84.90;;;;;;2075373;28;20061;-83
2021/05/07 00:58:45;;;;;;;6.50;4.22;;;5.30;84.80;;;;;;2054311;28;20019;-83
2021/05/07 00:59:45;;;;;;;6.10;3.97;;;5.30;84.90;;;;;;2064553;28;20074;-82
2021/05/07 01:00:49;;;;;;;6.38;3.95;;;5.30;84.90;;;;;;2088361;28;20024;-83
2021/05/07 01:01:49;;;;;;;5.82;3.80;;;5.30;84.90;;;;;;2089391;28;20041;-82
2021/05/07 01:02:50;;;;;;;5.95;3.95;;;5.20;84.90;;;;;;2080001;28;20204;-83
2021/05/07 01:03:51;;;;;;;5.88;4.00;;;5.20;85.00;;;;;;2077502;28;20037;-82
2021/05/07 01:04:52;;;;;;;5.82;4.30;;;5.20;85.00;;;;;;2083011;28;20068;-82
2021/05/07 01:05:52;;;;;;;6.97;4.18;;;5.20;85.00;;;;;;2075079;28;20594;-82
2021/05/07 01:06:53;;;;;;;6.18;4.10;;;5.20;85.10;;;;;;2079867;28;20026;-83
2021/05/07 01:07:54;;;;;;;5.85;4.03;;;5.20;85.10;;;;;;2072499;28;20040;-83
2021/05/07 01:08:56;;;;;;;6.30;4.20;;;5.20;85.10;;;;;;2068264;28;20053;-83
2021/05/07 01:09:57;;;;;;;6.60;4.05;;;5.20;85.00;;;;;;2063120;28;20105;-82
2021/05/07 01:10:57;;;;;;;6.40;4.10;;;5.20;85.00;;;;;;2079215;28;20040;-82
2021/05/07 01:11:58;;;;;;;6.07;4.00;;;5.20;85.00;;;;;;2070423;28;20033;-83
2021/05/07 01:12:59;;;;;;;6.20;3.75;;;5.10;85.00;;;;;;2069919;28;20105;-83
2021/05/07 01:13:59;;;;;;;6.18;4.18;;;5.10;84.90;;;;;;2074713;28;20033;-82
2021/05/07 01:15:03;;;;;;;5.47;3.92;;;5.10;85.00;;;;;;2078160;28;20117;-83
2021/05/07 01:16:06;;;;;;;6.18;4.35;;;5.10;85.00;;;;;;2085430;28;20032;-82
2021/05/07 01:17:07;;;;;;;6.30;4.00;;;5.10;85.00;;;;;;2081195;28;20053;-83
2021/05/07 01:18:08;;;;;;;6.32;4.10;;;5.10;84.90;;;;;;2064412;28;20026;-83
2021/05/07 01:19:13;;;;;;;5.38;3.97;;;5.10;84.90;;;;;;2071968;28;20029;-82
2021/05/07 01:20:19;;;;;;;5.95;3.97;;;5.10;84.90;;;;;;2064213;28;20077;-82
2021/05/07 01:21:20;;;;;;;5.75;4.10;;;5.10;84.90;;;;;;2077023;28;20060;-82
2021/05/07 01:22:20;;;;;;;6.93;4.28;;;5.00;84.90;;;;;;2073613;28;20503;-82
2021/05/07 01:23:21;;;;;;;5.38;3.95;;;5.00;84.90;;;;;;2063519;28;20617;-82
2021/05/07 01:24:25;;;;;;;6.00;4.22;;;5.00;84.90;;;;;;2071386;28;20019;-82
2021/05/07 01:25:29;;;;;;;5.82;4.07;;;5.00;85.00;;;;;;2089499;28;20129;-82
2021/05/07 01:26:29;;;;;;;5.03;3.80;;;4.90;85.00;;;;;;2087594;28;20021;-82
2021/05/07 01:27:35;;;;;;;6.25;4.05;;;4.90;85.00;;;;;;2087045;28;20052;-82
2021/05/07 01:28:36;;;;;;;6.07;3.97;;;4.90;85.00;;;;;;2072858;28;20083;-82
2021/05/07 01:29:37;;;;;;;5.82;4.20;;;4.90;85.00;;;;;;2064978;28;20074;-82
2021/05/07 01:30:44;;;;;;;6.68;4.00;;;4.90;85.00;;;;;;2074433;28;20052;-82
2021/05/07 01:31:46;;;;;;;6.95;4.70;;;4.90;85.00;;;;;;2084834;28;20037;-83
2021/05/07 01:32:47;;;;;;;6.88;4.18;;;4.90;85.00;;;;;;2075317;28;20033;-83
2021/05/07 01:33:48;;;;;;;5.78;4.10;;;4.90;85.10;;;;;;2068357;28;20033;-81
2021/05/07 01:34:49;;;;;;;6.72;4.45;;;4.90;85.10;;;;;;2072374;28;20071;-82
2021/05/07 01:35:49;;;;;;;7.85;4.28;;;4.90;85.20;;;;;;2075019;28;20508;-82
2021/05/07 01:36:50;;;;;;;6.10;4.30;;;4.80;85.20;;;;;;2078950;28;20057;-83
2021/05/07 01:37:54;;;;;;;7.10;4.43;;;4.80;85.30;;;;;;2079361;28;20072;-82
2021/05/07 01:38:54;;;;;;;5.88;4.28;;;4.80;85.30;;;;;;2076693;28;20037;-82
2021/05/07 01:39:55;;;;;;;6.50;4.50;;;4.80;85.20;;;;;;2059859;28;20026;-82
2021/05/07 01:40:56;;;;;;;6.75;4.10;;;4.80;85.20;;;;;;2077727;28;20021;-82
2021/05/07 01:41:56;;;;;;;5.85;4.30;;;4.80;85.80;;;;;;2075081;28;20506;-82
2021/05/07 01:42:57;;;;;;;6.00;4.15;;;4.80;85.30;;;;;;2066091;28;20026;-82
2021/05/07 01:43:58;;;;;;;6.20;4.05;;;4.80;85.40;;;;;;2083023;28;20039;-82
2021/05/07 01:44:59;;;;;;;5.85;4.03;;;4.80;85.40;;;;;;2084407;28;20078;-81
2021/05/07 01:45:59;;;;;;;6.55;4.43;;;4.80;85.70;;;;;;2068814;28;20033;-82
2021/05/07 01:47:00;;;;;;;5.57;4.07;;;4.80;85.40;;;;;;2079795;28;20075;-82
2021/05/07 01:48:01;;;;;;;6.63;4.72;;;4.80;85.40;;;;;;2073511;28;20587;-81
2021/05/07 01:49:02;;;;;;;6.32;4.28;;;4.70;85.40;;;;;;2075808;28;20495;-82
2021/05/07 01:50:05;;;;;;;6.63;4.05;;;4.80;85.40;;;;;;2093108;28;20075;-82
2021/05/07 01:51:09;;;;;;;5.85;4.20;;;4.80;85.40;;;;;;2084884;28;20013;-82
2021/05/07 01:52:09;;;;;;;6.00;4.47;;;4.80;85.40;;;;;;2084934;28;20111;-82
2021/05/07 01:53:11;;;;;;;7.00;4.82;;;4.80;85.40;;;;;;2093267;28;20033;-82
2021/05/07 01:54:11;;;;;;;6.10;4.50;;;4.80;85.50;;;;;;2095841;28;20024;-82
2021/05/07 01:55:15;;;;;;;5.50;3.85;;;4.80;85.50;;;;;;2094947;28;20071;-82
2021/05/07 01:56:16;;;;;;;6.25;4.13;;;4.70;85.50;;;;;;2095492;28;20535;-82
2021/05/07 01:57:16;;;;;;;6.05;3.88;;;4.70;85.40;;;;;;2070056;28;20125;-83
2021/05/07 01:58:18;;;;;;;6.22;4.20;;;4.70;85.40;;;;;;2062742;28;20033;-82
2021/05/07 01:59:18;;;;;;;5.65;4.05;;;4.70;85.50;;;;;;2065422;28;20389;-82
2021/05/07 02:00:23;;;;;;;6.60;4.20;;;4.70;85.50;;;;;;2077332;28;20049;-82
2021/05/07 02:01:23;;;;;;;6.20;4.20;;;4.70;85.50;;;;;;2092315;28;20024;-82
2021/05/07 02:02:24;;;;;;;5.68;4.00;;;4.70;85.50;;;;;;2076609;28;20369;-83
2021/05/07 02:03:25;;;;;;;5.65;4.00;;;4.70;85.50;;;;;;2075662;28;20068;-82
2021/05/07 02:04:25;;;;;;;6.22;3.92;;;4.70;85.50;;;;;;2092121;28;20036;-82
2021/05/07 02:05:28;;;;;;;6.18;4.00;;;4.70;85.60;;;;;;2087795;28;20044;-82
2021/05/07 02:06:29;;;;;;;6.22;3.97;;;4.70;85.60;;;;;;2088129;28;20440;-82
2021/05/07 02:07:29;;;;;;;7.20;4.60;;;4.70;85.60;;;;;;2075377;28;20080;-83
2021/05/07 02:08:30;;;;;;;5.95;4.20;;;4.70;85.50;;;;;;2071751;28;20439;-82
2021/05/07 02:09:30;;;;;;;6.57;4.20;;;4.70;85.60;;;;;;2071553;28;20374;-82
2021/05/07 02:10:32;;;;;;;6.30;4.13;;;4.60;85.50;;;;;;2073802;28;20030;-82
2021/05/07 02:11:33;;;;;;;6.20;4.03;;;4.60;85.40;;;;;;2071971;28;20081;-83
2021/05/07 02:12:34;;;;;;;5.85;4.25;;;4.60;85.50;;;;;;2071601;28;20036;-83
2021/05/07 02:13:35;;;;;;;6.55;4.35;;;4.70;85.50;;;;;;2079004;28;20033;-83
2021/05/07 02:14:36;;;;;;;6.25;4.38;;;4.70;85.40;;;;;;2076965;28;20041;-82
2021/05/07 02:15:37;;;;;;;5.97;4.00;;;4.60;85.40;;;;;;2072073;28;20033;-82
2021/05/07 02:16:38;;;;;;;6.22;4.30;;;4.60;85.40;;;;;;2088139;28;20464;-83
2021/05/07 02:17:39;;;;;;;5.68;4.18;;;4.60;85.40;;;;;;2066924;28;20034;-83
2021/05/07 02:18:40;;;;;;;6.50;4.32;;;4.60;85.40;;;;;;2073389;28;20407;-82
2021/05/07 02:19:41;;;;;;;6.00;4.30;;;4.60;85.40;;;;;;2079544;28;20025;-82
2021/05/07 02:20:43;;;;;;;6.20;4.30;;;4.60;85.50;;;;;;2071650;28;20072;-82
2021/05/07 02:21:44;;;;;;;6.15;3.90;;;4.60;85.50;;;;;;2082958;28;20030;-82
2021/05/07 02:22:47;;;;;;;6.00;4.00;;;4.60;85.60;;;;;;2083589;28;20060;-83
2021/05/07 02:23:47;;;;;;;6.38;4.35;;;4.60;85.60;;;;;;2085421;28;20396;-83
2021/05/07 02:24:48;;;;;;;6.07;4.10;;;4.50;85.60;;;;;;2076922;28;20117;-82
2021/05/07 02:25:48;;;;;;;6.07;4.15;;;4.60;85.70;;;;;;2071334;28;20065;-82
2021/05/07 02:26:49;;;;;;;6.00;4.30;;;4.60;85.70;;;;;;2071470;28;20478;-82
2021/05/07 02:27:52;;;;;;;7.57;4.45;;;4.60;85.80;;;;;;2069484;28;20034;-81
2021/05/07 02:28:53;;;;;;;6.90;4.13;;;4.60;85.80;;;;;;2083126;28;20072;-82
2021/05/07 02:29:53;;;;;;;6.10;4.28;;;4.60;85.80;;;;;;2095697;28;20021;-82
2021/05/07 02:30:54;;;;;;;5.72;4.18;;;4.60;85.80;;;;;;2086488;28;20108;-82
2021/05/07 02:31:54;;;;;;;5.90;4.43;;;4.60;85.70;;;;;;2075573;28;20403;-82
2021/05/07 02:32:56;;;;;;;6.15;4.15;;;4.60;85.70;;;;;;2070588;28;20038;-82
2021/05/07 02:33:56;;;;;;;6.22;4.15;;;4.60;85.80;;;;;;2071728;28;20136;-82
2021/05/07 02:34:57;;;;;;;5.72;4.30;;;4.60;85.70;;;;;;2070799;28;20535;-83
2021/05/07 02:35:58;;;;;;;6.40;4.18;;;4.50;85.70;;;;;;2082747;28;20478;-82
2021/05/07 02:36:58;;;;;;;6.28;4.20;;;4.60;85.70;;;;;;2074171;28;20500;-82
2021/05/07 02:37:59;;;;;;;5.55;3.95;;;4.60;85.80;;;;;;2069091;28;20034;-82
2021/05/07 02:39:00;;;;;;;6.50;4.45;;;4.50;85.80;;;;;;2082596;28;20476;-82
2021/05/07 02:40:00;;;;;;;6.22;4.43;;;4.50;85.80;;;;;;2091279;28;20066;-82
2021/05/07 02:41:01;;;;;;;5.90;3.90;;;4.50;85.80;;;;;;2078857;28;20050;-82
2021/05/07 02:42:03;;;;;;;7.07;4.10;;;4.50;85.90;;;;;;2087373;28;20515;-82
2021/05/07 02:43:03;;;;;;;6.45;4.25;;;4.50;85.90;;;;;;2083312;28;20075;-83
2021/05/07 02:44:05;;;;;;;6.38;4.30;;;4.60;86.00;;;;;;2074619;28;20113;-82
2021/05/07 02:45:08;;;;;;;6.82;4.20;;;4.50;86.00;;;;;;2083213;28;20430;-82
2021/05/07 02:46:09;;;;;;;4.82;3.60;;;4.60;86.00;;;;;;2084406;28;20018;-82
2021/05/07 02:47:09;;;;;;;5.43;3.80;;;4.60;86.00;;;;;;2076553;28;20033;-82
2021/05/07 02:48:10;;;;;;;6.85;4.70;;;4.60;85.90;;;;;;2058950;28;20062;-82
2021/05/07 02:49:11;;;;;;;7.32;4.35;;;4.60;85.90;;;;;;2066489;28;20477;-82
2021/05/07 02:50:11;;;;;;;5.93;3.88;;;4.60;86.10;;;;;;2086443;28;20128;-82
2021/05/07 02:51:12;;;;;;;6.20;4.30;;;4.60;85.90;;;;;;2084813;28;20519;-82
2021/05/07 02:52:13;;;;;;;5.82;4.00;;;4.60;85.90;;;;;;2072913;28;20065;-82
2021/05/07 02:53:13;;;;;;;5.68;3.88;;;4.60;85.90;;;;;;2067607;28;20480;-82
2021/05/07 02:54:14;;;;;;;5.40;3.80;;;4.70;85.90;;;;;;2075849;28;20039;-82
2021/05/07 02:55:15;;;;;;;5.70;3.88;;;4.60;85.80;;;;;;2084260;28;20029;-82
2021/05/07 02:56:15;;;;;;;6.20;4.43;;;4.70;85.80;;;;;;2077761;28;20041;-82
2021/05/07 02:57:16;;;;;;;5.88;4.07;;;4.70;85.90;;;;;;2076604;28;20080;-82
2021/05/07 02:58:16;;;;;;;5.32;3.83;;;4.70;85.90;;;;;;2069600;28;20037;-82
2021/05/07 02:59:17;;;;;;;5.00;3.67;;;4.70;85.90;;;;;;2071374;28;20081;-82
2021/05/07 03:00:19;;;;;;;5.70;3.83;;;4.70;85.90;;;;;;2071900;28;20591;-82
2021/05/07 03:01:20;;;;;;;6.03;3.95;;;4.70;85.80;;;;;;2069334;28;20034;-82
2021/05/07 03:02:21;;;;;;;5.63;4.03;;;4.70;86.40;;;;;;2068066;28;20034;-82
2021/05/07 03:03:21;;;;;;;5.63;4.07;;;4.70;85.80;;;;;;2089184;28;20072;-82
2021/05/07 03:04:22;;;;;;;5.43;4.10;;;4.80;85.90;;;;;;2093462;28;20075;-82
2021/05/07 03:05:23;;;;;;;6.53;4.25;;;4.80;85.80;;;;;;2095818;28;20052;-82
2021/05/07 03:06:23;;;;;;;6.15;4.40;;;4.80;85.80;;;;;;2077565;28;20293;-82
2021/05/07 03:07:24;;;;;;;6.07;4.30;;;4.80;85.70;;;;;;2073259;28;20022;-82
2021/05/07 03:08:24;;;;;;;5.40;3.85;;;4.80;85.60;;;;;;2075006;28;20377;-83
2021/05/07 03:09:26;;;;;;;6.10;4.25;;;4.80;85.60;;;;;;2071312;28;20046;-82
2021/05/07 03:10:27;;;;;;;6.07;4.30;;;4.90;85.70;;;;;;2071199;28;20022;-83
2021/05/07 03:11:28;;;;;;;6.10;4.15;;;4.80;85.60;;;;;;2078450;28;20034;-83
2021/05/07 03:12:28;;;;;;;5.63;4.30;;;4.90;85.60;;;;;;2061901;28;20030;-83
2021/05/07 03:13:29;;;;;;;6.15;4.00;;;4.90;85.60;;;;;;2064466;28;20084;-82
2021/05/07 03:14:29;;;;;;;6.03;4.22;;;4.90;85.60;;;;;;2078120;28;20046;-82
2021/05/07 03:15:30;;;;;;;6.55;4.22;;;4.90;85.60;;;;;;2079981;28;20052;-82
2021/05/07 03:16:31;;;;;;;6.05;4.07;;;4.90;85.60;;;;;;2084989;28;20474;-82
2021/05/07 03:17:32;;;;;;;6.40;4.32;;;4.90;85.60;;;;;;2086394;28;20029;-83
2021/05/07 03:18:33;;;;;;;5.78;4.18;;;4.90;85.60;;;;;;2078265;28;20042;-83
2021/05/07 03:19:33;;;;;;;6.18;4.07;;;4.90;85.60;;;;;;2077497;28;20419;-83
2021/05/07 03:20:34;;;;;;;6.50;4.22;;;4.90;85.70;;;;;;2076258;28;20436;-82
2021/05/07 03:21:35;;;;;;;7.45;4.53;;;4.90;85.70;;;;;;2083090;28;20395;-83
2021/05/07 03:22:35;;;;;;;6.20;4.25;;;4.90;85.70;;;;;;2076470;28;20084;-83
2021/05/07 03:23:36;;;;;;;6.43;4.30;;;5.00;85.70;;;;;;2079035;28;20464;-83
2021/05/07 03:24:36;;;;;;;6.68;4.55;;;4.90;85.60;;;;;;2072743;28;20037;-83
2021/05/07 03:25:37;;;;;;;5.97;4.35;;;5.00;85.70;;;;;;2069445;28;20034;-82
2021/05/07 03:26:39;;;;;;;6.78;4.63;;;5.00;85.90;;;;;;2084641;28;20032;-82
2021/05/07 03:27:40;;;;;;;6.88;4.47;;;5.00;85.70;;;;;;2086402;28;20025;-83
2021/05/07 03:28:41;;;;;;;5.78;4.15;;;5.00;85.70;;;;;;2075192;28;20118;-83
2021/05/07 03:29:41;;;;;;;6.72;4.60;;;5.00;85.70;;;;;;2085453;28;20171;-83
2021/05/07 03:30:42;;;;;;;5.97;4.28;;;5.00;85.70;;;;;;2078013;28;20022;-83
2021/05/07 03:31:43;;;;;;;6.90;4.53;;;5.00;85.70;;;;;;2072164;28;20037;-82
2021/05/07 03:32:43;;;;;;;6.35;4.55;;;5.00;85.70;;;;;;2071693;28;20041;-82
2021/05/07 03:33:45;;;;;;;7.22;4.45;;;5.00;85.70;;;;;;2082215;28;20085;-83
2021/05/07 03:34:48;;;;;;;6.78;4.28;;;5.00;85.70;;;;;;2088052;28;20416;-83
2021/05/07 03:35:49;;;;;;;7.68;4.28;;;4.90;85.70;;;;;;2081284;28;20129;-83
2021/05/07 03:36:49;;;;;;;6.22;4.55;;;4.90;85.80;;;;;;2081152;28;20563;-83
2021/05/07 03:37:50;;;;;;;6.65;4.72;;;4.90;85.90;;;;;;2077319;28;20460;-83
2021/05/07 03:38:51;;;;;;;6.63;4.72;;;4.90;85.90;;;;;;2076951;28;20142;-83
2021/05/07 03:39:52;;;;;;;6.97;4.75;;;4.90;85.90;;;;;;2083337;28;20080;-82
2021/05/07 03:40:52;;;;;;;7.05;5.07;;;4.90;85.90;;;;;;2072843;28;20037;-83
2021/05/07 03:41:53;;;;;;;7.57;5.32;;;4.90;85.90;;;;;;2078791;28;20029;-82
2021/05/07 03:42:54;;;;;;;5.97;4.25;;;4.90;86.00;;;;;;2092597;28;20108;-82
2021/05/07 03:43:54;;;;;;;6.63;4.75;;;4.90;86.00;;;;;;2094462;28;20028;-83
2021/05/07 03:44:55;;;;;;;7.63;4.65;;;5.00;86.00;;;;;;2084577;28;20018;-83
2021/05/07 03:45:55;;;;;;;6.47;4.70;;;4.90;86.00;;;;;;2078249;28;20527;-83
2021/05/07 03:46:57;;;;;;;7.10;4.75;;;5.00;86.00;;;;;;2086972;28;20039;-83
2021/05/07 03:47:58;;;;;;;7.05;4.80;;;4.90;86.00;;;;;;2080929;28;20049;-83
2021/05/07 03:48:58;;;;;;;6.80;4.95;;;4.90;86.00;;;;;;2078027;28;20076;-82
2021/05/07 03:49:59;;;;;;;6.82;4.85;;;5.00;86.10;;;;;;2084255;28;20601;-83
2021/05/07 03:51:00;;;;;;;6.90;4.97;;;4.90;86.00;;;;;;2086835;28;20033;-83
2021/05/07 03:52:01;;;;;;;6.82;4.80;;;5.00;86.10;;;;;;2079869;28;20117;-83
2021/05/07 03:53:01;;;;;;;6.78;4.80;;;5.00;86.10;;;;;;2080129;28;20065;-83
2021/05/07 03:54:02;;;;;;;7.43;4.85;;;5.00;86.10;;;;;;2080966;28;20041;-83
2021/05/07 03:55:05;;;;;;;5.97;4.53;;;5.00;86.00;;;;;;2079767;28;20025;-82
2021/05/07 03:56:05;;;;;;;8.05;5.13;;;5.00;86.00;;;;;;2087925;28;20037;-82
2021/05/07 03:57:06;;;;;;;6.78;4.93;;;5.00;86.00;;;;;;2080507;28;20025;-83
2021/05/07 03:58:08;;;;;;;7.93;5.03;;;5.00;86.00;;;;;;2086464;28;20487;-83
2021/05/07 03:59:09;;;;;;;7.15;5.07;;;5.00;86.00;;;;;;2079939;28;20492;-83
2021/05/07 04:00:11;;;;;;;7.05;5.07;;;5.00;86.00;;;;;;2080005;28;20034;-82
2021/05/07 04:01:11;;;;;;;8.40;4.68;;;5.00;86.10;;;;;;2080970;28;20025;-83
2021/05/07 04:02:12;;;;;;;7.03;4.95;;;5.10;86.70;;;;;;2072299;28;20041;-83
2021/05/07 04:03:13;;;;;;;6.80;5.00;;;5.00;86.00;;;;;;2071752;28;20511;-83
2021/05/07 04:04:14;;;;;;;7.18;5.15;;;5.10;86.10;;;;;;2080569;28;20022;-83
2021/05/07 04:05:14;;;;;;;6.97;5.22;;;5.10;86.00;;;;;;2068269;28;20045;-82
2021/05/07 04:06:18;;;;;;;7.18;5.22;;;5.10;86.10;;;;;;2084648;28;20041;-82
2021/05/07 04:07:19;;;;;;;6.28;5.00;;;5.10;86.10;;;;;;2095452;28;20509;-82
2021/05/07 04:08:22;;;;;;;6.35;4.95;;;5.10;86.00;;;;;;2066672;28;20547;-83
2021/05/07 04:09:33;;;;;;;7.80;4.90;;;5.20;86.10;;;;;;2076395;28;20026;-83
2021/05/07 04:10:47;;;;;;;6.70;5.15;;;5.20;86.00;;;;;;2078802;28;20503;-83
2021/05/07 04:13:49;;;;;;;6.53;4.72;;;5.10;85.90;;;;;;2086177;28;20479;-82
2021/05/07 04:14:50;;;;;;;6.82;5.10;;;5.10;85.90;;;;;;2082500;28;20031;-83
2021/05/07 04:15:51;;;;;;;6.55;4.78;;;5.10;85.90;;;;;;2077081;28;20564;-82
2021/05/07 04:16:52;;;;;;;6.93;5.00;;;5.10;85.90;;;;;;2068931;28;20018;-82
2021/05/07 04:17:53;;;;;;;6.00;4.63;;;5.00;85.90;;;;;;2064674;28;20030;-82
2021/05/07 04:18:55;;;;;;;7.03;4.50;;;5.00;86.00;;;;;;2072286;28;20460;-82
2021/05/07 04:19:55;;;;;;;5.65;4.35;;;5.00;86.00;;;;;;2084696;28;20025;-82
2021/05/07 04:20:56;;;;;;;6.03;4.28;;;5.00;86.00;;;;;;2096031;28;20066;-82
2021/05/07 04:21:57;;;;;;;5.80;4.03;;;5.00;86.60;;;;;;2073211;28;20779;-81
2021/05/07 04:22:58;;;;;;;5.07;3.70;;;5.00;86.00;;;;;;2064237;28;20015;-81
2021/05/07 04:23:58;;;;;;;6.95;4.38;;;4.90;86.00;;;;;;2076488;28;20022;-81
2021/05/07 04:24:59;;;;;;;5.90;4.00;;;4.90;86.00;;;;;;2071779;28;20540;-81
2021/05/07 04:26:00;;;;;;;5.25;3.70;;;4.90;86.10;;;;;;2072707;28;20462;-81
2021/05/07 04:27:01;;;;;;;5.07;3.40;;;4.90;86.20;;;;;;2072181;28;20124;-81
2021/05/07 04:28:01;;;;;;;5.55;3.33;;;4.90;86.10;;;;;;2088595;28;20104;-81
2021/05/07 04:29:03;;;;;;;5.93;3.30;;;4.80;86.00;;;;;;2093231;28;20039;-81
2021/05/07 04:30:06;;;;;;;5.55;3.00;;;4.80;86.00;;;;;;2077016;28;20171;-81
2021/05/07 04:31:07;;;;;;;4.78;2.45;;;4.80;86.10;;;;;;2088649;28;20388;-80
2021/05/07 04:32:08;;;;;;;4.07;2.67;;;4.70;86.20;;;;;;2084311;28;20136;-80
2021/05/07 04:33:08;;;;;;;3.38;2.10;;;4.60;86.20;;;;;;2074892;28;20565;-81
2021/05/07 04:34:09;;;;;;;3.78;2.33;;;4.60;86.40;;;;;;2083722;28;20028;-80
2021/05/07 04:35:10;;;;;;;2.97;1.80;;;4.60;86.40;;;;;;2088683;28;20024;-81
2021/05/07 04:36:11;;;;;;;3.65;2.10;;;4.60;86.40;;;;;;2088400;28;20136;-80
2021/05/07 04:37:11;;;;;;;3.97;1.98;;;4.60;86.50;;;;;;2080159;28;20025;-80
2021/05/07 04:38:12;;;;;;;3.45;1.85;;;4.50;86.60;;;;;;2078030;28;20091;-81
2021/05/07 04:39:12;;;;;;;3.25;1.73;;;4.50;86.70;;;;;;2071772;28;20029;-81
2021/05/07 04:40:14;;;;;;;2.90;1.52;;;4.50;86.90;;;;;;2074828;28;20037;-81
2021/05/07 04:41:15;;;;;;;2.50;1.70;;;4.50;87.00;;;;;;2083617;28;20033;-82
2021/05/07 04:42:15;;;;;;;2.75;1.60;;;4.50;87.10;;;;;;2088771;28;20052;-81
2021/05/07 04:43:16;;;;;;;2.65;1.70;;;4.50;87.10;;;;;;2085904;28;20395;-79
2021/05/07 04:44:16;;;;;;;3.55;1.80;;;4.50;87.10;;;;;;2077498;28;20047;-79
2021/05/07 04:45:17;;;;;;;2.03;1.40;;;4.50;87.10;;;;;;2091874;28;20052;-82
2021/05/07 04:46:18;;;;;;;3.22;1.67;;;4.60;87.10;;;;;;2091452;28;20028;-80
2021/05/07 04:47:18;;;;;;;2.55;1.60;;;4.60;87.10;;;;;;2083517;28;20025;-80
2021/05/07 04:48:19;;;;;;;2.85;1.60;;;4.60;87.10;;;;;;2083390;28;20122;-80
2021/05/07 04:49:20;;;;;;;2.15;1.48;;;4.60;87.10;;;;;;2084429;28;20021;-80
2021/05/07 04:50:21;;;;;;;2.90;1.50;;;4.60;87.00;;;;;;2084001;28;20034;-80
2021/05/07 04:51:21;;;;;;;3.50;1.52;;;4.60;87.00;;;;;;2078706;28;20017;-80
2021/05/07 04:52:23;;;;;;;2.75;1.65;;;4.70;87.10;;;;;;2075777;28;20480;-80
2021/05/07 04:53:23;;;;;;;2.80;1.40;;;4.60;87.00;;;;;;2076189;28;20514;-80
2021/05/07 04:54:25;;;;;;;3.00;1.70;;;4.70;87.70;;;;;;2084004;28;20074;-80
2021/05/07 04:55:26;;;;;;;2.97;1.60;;;4.60;87.00;;;;;;2091552;28;20100;-80
2021/05/07 04:56:26;;;;;;;2.58;1.60;;;4.60;87.00;;;;;;2087288;28;20032;-80
2021/05/07 04:57:30;;;;;;;2.28;1.52;;;4.70;87.00;;;;;;2086571;28;20515;-80
2021/05/07 04:58:31;;;;;;;2.90;1.50;;;4.60;87.00;;;;;;2090254;28;20462;-81
2021/05/07 04:59:33;;;;;;;2.55;1.63;;;4.70;87.00;;;;;;2082713;28;20136;-81
2021/05/07 05:00:33;;;;;;;2.38;1.35;;;4.60;87.00;;;;;;2083198;28;20018;-81
2021/05/07 05:01:34;;;;;;;2.47;1.60;;;4.60;87.00;;;;;;2087647;28;20033;-80
2021/05/07 05:02:35;;;;;;;2.25;1.60;;;4.60;87.00;;;;;;2088657;28;20056;-80
2021/05/07 05:03:35;;;;;;;3.35;1.88;;;4.70;87.70;;;;;;2074324;28;20045;-80
2021/05/07 05:04:36;;;;;;;3.28;1.40;;;4.60;87.10;;;;;;2079691;28;20025;-80
2021/05/07 05:05:37;;;;;;;2.72;1.80;;;4.60;87.10;;;;;;2080023;28;20573;-80
2021/05/07 05:06:37;;;;;;;3.05;1.67;;;4.60;87.10;;;;;;2075633;28;20033;-80
2021/05/07 05:07:38;;;;;;;2.50;1.70;;;4.60;87.10;;;;;;2085444;28;20392;-81
2021/05/07 05:08:38;;;;;;;2.08;1.38;;;4.60;87.10;;;;;;2084775;28;20169;-80
2021/05/07 05:09:39;;;;;;;3.13;1.65;;;4.60;87.10;;;;;;2073166;28;20471;-80
2021/05/07 05:10:40;;;;;;;2.88;1.60;;;4.60;87.20;;;;;;2079409;28;20030;-80
2021/05/07 05:11:40;;;;;;;2.63;1.58;;;4.60;87.20;;;;;;2079809;28;20459;-81
2021/05/07 05:12:41;;;;;;;2.80;1.65;;;4.60;87.30;;;;;;2077098;28;20041;-80
2021/05/07 05:13:42;;;;;;;2.42;1.60;;;4.60;87.30;;;;;;2084396;28;20028;-80
2021/05/07 05:14:42;;;;;;;2.80;1.50;;;4.60;87.30;;;;;;2088149;28;20034;-80
2021/05/07 05:15:43;;;;;;;2.75;1.50;;;4.60;87.30;;;;;;2078232;28;20608;-80
2021/05/07 05:16:44;;;;;;;2.78;1.70;;;4.60;87.30;;;;;;2079931;28;20029;-80
2021/05/07 05:17:44;;;;;;;3.17;1.55;;;4.60;87.30;;;;;;2080018;28;20099;-80
2021/05/07 05:18:45;;;;;;;2.85;1.40;;;4.70;87.30;;;;;;2077272;28;20067;-81
2021/05/07 05:19:47;;;;;;;3.47;1.70;;;4.60;87.20;;;;;;2083483;28;20056;-80
2021/05/07 05:20:48;;;;;;;3.00;1.48;;;4.70;87.20;;;;;;2076089;28;20037;-81
2021/05/07 05:21:48;;;;;;;2.83;1.60;;;4.70;87.20;;;;;;2073894;28;20461;-81
2021/05/07 05:22:49;;;;;;;2.78;1.58;;;4.70;87.20;;;;;;2095627;28;20036;-80
2021/05/07 05:23:50;;;;;;;2.25;1.45;;;4.70;87.20;;;;;;2085740;28;20119;-80
2021/05/07 05:24:50;;;;;;;3.03;1.45;;;4.70;87.20;;;;;;2079952;28;20037;-81